createdAt,value
2022-08-17T00:02:26.565Z,9.05
2022-08-17T00:04:55.297Z,8.95
2022-08-17T00:07:23.063Z,9.20
2022-08-17T00:09:50.342Z,9.48
2022-08-17T00:12:41.925Z,8.90
2022-08-17T00:15:06.034Z,9.25
2022-08-17T00:17:37.437Z,9.35
2022-08-17T00:20:05.387Z,9.18
2022-08-17T00:22:36.450Z,9.38
2022-08-17T00:25:12.097Z,8.88
2022-08-17T00:27:39.602Z,8.52
2022-08-17T00:30:09.323Z,9.05
2022-08-17T00:33:14.716Z,8.93
2022-08-17T00:35:34.400Z,9.00
2022-08-17T00:38:01.328Z,9.27
2022-08-17T00:40:44.673Z,8.95
2022-08-17T00:43:18.220Z,8.95
2022-08-17T00:45:45.510Z,10.13
2022-08-17T00:48:29.177Z,9.05
2022-08-17T00:51:09.095Z,9.45
2022-08-17T00:53:40.383Z,10.80
2022-08-17T00:56:14.601Z,10.15
2022-08-17T00:58:41.677Z,9.57
2022-08-17T01:01:11.219Z,9.80
2022-08-17T01:03:39.053Z,9.70
2022-08-17T01:06:08.046Z,9.38
2022-08-17T01:08:38.515Z,9.27
2022-08-17T01:11:06.596Z,9.13
2022-08-17T01:13:41.900Z,9.98
2022-08-17T01:16:20.698Z,9.68
2022-08-17T01:18:50.890Z,9.73
2022-08-17T01:21:39.776Z,9.27
2022-08-17T01:24:07.332Z,9.02
2022-08-17T01:26:35.874Z,9.35
2022-08-17T01:29:05.032Z,9.18
2022-08-17T01:31:41.564Z,9.60
2022-08-17T01:34:11.425Z,9.70
2022-08-17T01:36:41.722Z,9.02
2022-08-17T01:39:16.828Z,9.07
2022-08-17T01:41:46.203Z,9.68
2022-08-17T01:44:15.301Z,10.05
2022-08-17T01:46:42.190Z,9.02
2022-08-17T01:49:11.654Z,9.50
2022-08-17T01:51:39.408Z,8.90
2022-08-17T01:54:10.217Z,9.05
2022-08-17T01:56:40.839Z,8.80
2022-08-17T01:59:07.792Z,9.63
2022-08-17T02:01:35.134Z,9.30
2022-08-17T02:04:02.979Z,8.95
2022-08-17T02:06:52.709Z,9.25
2022-08-17T02:09:18.525Z,8.98
2022-08-17T02:11:46.261Z,8.38
2022-08-17T02:14:13.743Z,8.75
2022-08-17T02:16:41.986Z,8.98
2022-08-17T02:19:13.018Z,8.68
2022-08-17T02:21:42.424Z,8.82
2022-08-17T02:24:16.877Z,9.00
2022-08-17T02:26:43.913Z,8.60
2022-08-17T02:29:10.768Z,8.75
2022-08-17T02:31:37.930Z,8.65
2022-08-17T02:34:06.247Z,8.52
2022-08-17T02:36:34.549Z,8.80
2022-08-17T02:39:03.853Z,9.30
2022-08-17T02:41:31.041Z,8.82
2022-08-17T02:43:58.695Z,8.57
2022-08-17T02:46:26.049Z,8.77
2022-08-17T02:48:52.949Z,8.98
2022-08-17T02:51:20.124Z,9.05
2022-08-17T02:53:47.103Z,9.13
2022-08-17T02:56:13.986Z,8.57
2022-08-17T02:58:40.950Z,8.70
2022-08-17T03:01:10.390Z,9.07
2022-08-17T03:03:38.145Z,8.68
2022-08-17T03:06:06.217Z,8.55
2022-08-17T03:08:33.230Z,8.55
2022-08-17T03:11:00.550Z,10.70
2022-08-17T03:13:27.689Z,8.98
2022-08-17T03:15:54.622Z,9.27
2022-08-17T03:18:25.395Z,8.70
2022-08-17T03:20:59.142Z,8.10
2022-08-17T03:23:27.483Z,7.85
2022-08-17T03:25:55.703Z,8.23
2022-08-17T03:28:24.104Z,7.57
2022-08-17T03:30:51.776Z,8.60
2022-08-17T03:33:19.390Z,8.25
2022-08-17T03:35:46.646Z,7.68
2022-08-17T03:38:15.371Z,7.57
2022-08-17T03:40:56.388Z,7.78
2022-08-17T03:43:29.426Z,7.25
2022-08-17T03:46:34.253Z,8.43
2022-08-17T03:49:23.272Z,7.72
2022-08-17T03:52:09.043Z,7.22
2022-08-17T03:54:54.417Z,8.45
2022-08-17T03:57:21.456Z,8.30
2022-08-17T03:59:48.497Z,8.80
2022-08-17T04:02:22.381Z,8.35
2022-08-17T04:04:52.736Z,8.25
2022-08-17T04:07:24.719Z,8.47
2022-08-17T04:09:52.060Z,8.07
2022-08-17T04:12:21.432Z,7.80
2022-08-17T04:14:53.209Z,8.40
2022-08-17T04:17:24.708Z,8.05
2022-08-17T04:19:52.057Z,7.85
2022-08-17T04:22:33.203Z,8.73
2022-08-17T04:25:16.515Z,8.68
2022-08-17T04:27:43.612Z,9.00
2022-08-17T04:30:11.210Z,9.15
2022-08-17T04:33:06.462Z,8.88
2022-08-17T04:35:55.487Z,8.90
2022-08-17T04:38:25.870Z,8.73
2022-08-17T04:41:11.939Z,9.03
2022-08-17T04:43:41.249Z,9.02
2022-08-17T04:46:17.447Z,11.82
2022-08-17T04:48:47.081Z,9.88
2022-08-17T04:51:18.199Z,9.30
2022-08-17T04:56:23.086Z,8.35
2022-08-17T04:58:54.819Z,8.88
2022-08-17T05:01:24.597Z,8.82
2022-08-17T05:03:59.042Z,8.80
2022-08-17T05:06:27.725Z,8.32
2022-08-17T05:08:55.311Z,9.68
2022-08-17T05:11:23.469Z,8.40
2022-08-17T05:13:50.533Z,8.88
2022-08-17T05:16:19.212Z,11.48
2022-08-17T05:18:46.368Z,10.35
2022-08-17T05:21:13.413Z,9.82
2022-08-17T05:23:42.470Z,9.07
2022-08-17T05:26:26.320Z,9.40
2022-08-17T05:28:59.827Z,9.02
2022-08-17T05:31:28.756Z,9.48
2022-08-17T05:33:55.911Z,9.07
2022-08-17T05:36:37.920Z,9.55
2022-08-17T05:39:10.749Z,12.95
2022-08-17T05:41:44.235Z,9.50
2022-08-17T05:44:11.070Z,12.25
2022-08-17T05:46:41.493Z,13.30
2022-08-17T05:49:08.875Z,11.80
2022-08-17T05:51:47.771Z,10.82
2022-08-17T05:54:26.221Z,11.25
2022-08-17T05:57:30.584Z,12.45
2022-08-17T06:00:19.287Z,15.05
2022-08-17T06:02:53.549Z,11.90
2022-08-17T06:05:29.582Z,11.35
2022-08-17T06:08:22.045Z,10.88
2022-08-17T06:10:58.269Z,11.45
2022-08-17T06:13:43.298Z,21.63
2022-08-17T06:16:32.867Z,12.23
2022-08-17T06:19:04.378Z,12.45
2022-08-17T06:21:37.655Z,14.70
2022-08-17T06:24:18.449Z,14.95
2022-08-17T06:26:46.592Z,11.57
2022-08-17T06:29:19.805Z,11.55
2022-08-17T06:31:46.696Z,11.48
2022-08-17T06:34:13.795Z,11.38
2022-08-17T06:36:48.200Z,11.00
2022-08-17T06:39:24.445Z,11.48
2022-08-17T06:42:54.737Z,13.05
2022-08-17T06:45:15.047Z,11.38
2022-08-17T06:47:59.509Z,11.43
2022-08-17T06:50:35.989Z,11.55
2022-08-17T06:53:23.766Z,12.63
2022-08-17T06:55:56.382Z,11.70
2022-08-17T06:58:29.698Z,11.95
2022-08-17T07:00:59.584Z,10.43
2022-08-17T07:03:59.461Z,11.15
2022-08-17T07:06:38.536Z,11.52
2022-08-17T07:09:17.425Z,11.07
2022-08-17T07:11:58.807Z,10.80
2022-08-17T07:14:31.961Z,10.57
2022-08-17T07:17:04.123Z,9.98
2022-08-17T07:19:33.751Z,9.70
2022-08-17T07:22:21.762Z,9.90
2022-08-17T07:24:59.667Z,10.88
2022-08-17T07:27:45.853Z,11.40
2022-08-17T07:30:22.229Z,10.23
2022-08-17T07:32:59.462Z,10.25
2022-08-17T07:35:31.397Z,10.13
2022-08-17T07:41:02.967Z,9.50
2022-08-17T07:43:42.216Z,9.77
2022-08-17T07:46:38.160Z,9.85
2022-08-17T07:49:08.017Z,19.98
2022-08-17T07:51:48.005Z,9.38
2022-08-17T07:54:19.572Z,10.32
2022-08-17T07:56:55.424Z,10.40
2022-08-17T07:59:33.530Z,10.35
2022-08-17T08:02:03.474Z,9.77
2022-08-17T08:04:59.678Z,10.93
2022-08-17T08:07:37.443Z,10.63
2022-08-17T08:10:22.876Z,11.55
2022-08-17T08:13:07.221Z,10.25
2022-08-17T08:15:53.637Z,9.70
2022-08-17T08:18:54.498Z,11.02
2022-08-17T08:21:18.392Z,9.00
2022-08-17T08:23:48.038Z,9.30
2022-08-17T08:26:18.864Z,10.10
2022-08-17T08:29:10.201Z,9.48
2022-08-17T08:31:45.725Z,10.80
2022-08-17T08:34:58.972Z,14.82
2022-08-17T08:37:32.273Z,24.45
2022-08-17T08:40:08.395Z,12.20
2022-08-17T08:43:07.489Z,11.48
2022-08-17T08:45:38.358Z,12.25
2022-08-17T08:48:23.008Z,9.80
2022-08-17T08:51:19.884Z,17.70
2022-08-17T08:54:05.957Z,9.27
2022-08-17T08:57:04.861Z,9.60
2022-08-17T08:59:57.739Z,9.40
2022-08-17T09:02:44.421Z,9.73
2022-08-17T09:05:39.256Z,10.52
2022-08-17T09:08:21.157Z,14.00
2022-08-17T09:11:06.239Z,9.40
2022-08-17T09:13:36.094Z,9.65
2022-08-17T09:16:15.380Z,14.65
2022-08-17T09:19:02.676Z,8.93
2022-08-17T09:21:48.292Z,8.82
2022-08-17T09:24:32.031Z,8.95
2022-08-17T09:27:14.542Z,8.45
2022-08-17T09:29:58.991Z,8.20
2022-08-17T09:32:34.450Z,9.68
2022-08-17T09:35:09.155Z,8.40
2022-08-17T09:38:01.985Z,8.30
2022-08-17T09:40:35.975Z,8.38
2022-08-17T09:43:33.524Z,8.18
2022-08-17T09:46:15.996Z,7.68
2022-08-17T09:49:07.486Z,9.05
2022-08-17T09:51:52.293Z,8.82
2022-08-17T09:54:45.079Z,8.98
2022-08-17T09:57:29.040Z,8.30
2022-08-17T10:00:18.815Z,8.55
2022-08-17T10:03:08.755Z,8.95
2022-08-17T10:06:06.599Z,7.65
2022-08-17T10:08:51.951Z,7.03
2022-08-17T10:12:06.261Z,7.82
2022-08-17T10:14:44.503Z,14.93
2022-08-17T10:17:21.927Z,7.10
2022-08-17T10:20:00.471Z,8.45
2022-08-17T10:22:56.446Z,11.52
2022-08-17T10:25:54.660Z,6.85
2022-08-17T10:28:30.595Z,6.55
2022-08-17T10:33:51.670Z,6.30
2022-08-17T10:36:41.416Z,6.22
2022-08-17T10:39:52.369Z,10.38
2022-08-17T10:42:35.448Z,7.03
2022-08-17T10:45:13.967Z,6.55
2022-08-17T10:48:06.131Z,6.13
2022-08-17T10:50:49.562Z,6.38
2022-08-17T10:53:42.244Z,6.20
2022-08-17T10:56:12.099Z,5.95
2022-08-17T10:58:54.085Z,6.00
2022-08-17T11:01:44.296Z,5.50
2022-08-17T11:04:21.355Z,6.00
2022-08-17T11:07:16.911Z,5.50
2022-08-17T11:10:02.103Z,6.25
2022-08-17T11:12:38.094Z,7.47
2022-08-17T11:15:24.813Z,7.18
2022-08-17T11:18:07.847Z,6.63
2022-08-17T11:21:01.679Z,6.43
2022-08-17T11:23:45.730Z,12.70
2022-08-17T11:26:22.087Z,7.40
2022-08-17T11:28:52.895Z,9.10
2022-08-17T11:32:01.422Z,11.98
2022-08-17T11:34:31.742Z,5.95
2022-08-17T11:37:05.020Z,5.63
2022-08-17T11:39:56.053Z,5.78
2022-08-17T11:42:59.963Z,5.57
2022-08-17T11:45:36.031Z,6.00
2022-08-17T11:49:01.130Z,5.97
2022-08-17T11:52:01.120Z,7.00
2022-08-17T11:54:33.402Z,7.17
2022-08-17T11:57:26.988Z,5.70
2022-08-17T11:59:55.289Z,5.80
2022-08-17T12:02:34.934Z,5.78
2022-08-17T12:05:26.059Z,5.40
2022-08-17T12:08:06.229Z,5.82
2022-08-17T12:10:36.455Z,6.22
2022-08-17T12:13:16.481Z,5.90
2022-08-17T12:18:28.517Z,5.50
2022-08-17T12:21:30.990Z,5.43
2022-08-17T12:24:06.502Z,5.57
2022-08-17T12:26:36.232Z,5.60
2022-08-17T12:29:18.059Z,5.53
2022-08-17T12:32:02.112Z,5.32
2022-08-17T12:37:26.196Z,5.25
2022-08-17T12:40:05.125Z,7.70
2022-08-17T12:42:37.282Z,5.63
2022-08-17T12:45:21.409Z,5.75
2022-08-17T12:47:48.302Z,6.53
2022-08-17T12:50:28.184Z,6.38
2022-08-17T12:53:01.108Z,6.05
2022-08-17T12:55:33.986Z,5.10
2022-08-17T12:58:02.235Z,5.32
2022-08-17T13:00:47.527Z,5.63
2022-08-17T13:03:24.663Z,6.70
2022-08-17T13:05:57.565Z,6.72
2022-08-17T13:08:45.234Z,4.72
2022-08-17T13:11:16.204Z,5.05
2022-08-17T13:13:50.839Z,4.93
2022-08-17T13:16:30.789Z,5.50
2022-08-17T13:19:14.669Z,5.57
2022-08-17T13:21:48.086Z,5.45
2022-08-17T13:24:37.922Z,7.20
2022-08-17T13:27:08.612Z,5.75
2022-08-17T13:29:38.657Z,5.40
2022-08-17T13:32:13.336Z,4.97
2022-08-17T13:35:14.198Z,5.75
2022-08-17T13:37:37.889Z,5.25
2022-08-17T13:40:10.480Z,6.25
2022-08-17T13:42:53.119Z,6.90
2022-08-17T13:45:35.637Z,6.55
2022-08-17T13:48:06.595Z,5.53
2022-08-17T13:50:33.958Z,6.10
2022-08-17T13:53:01.081Z,5.10
2022-08-17T13:55:30.854Z,6.93
2022-08-17T13:58:04.123Z,7.13
2022-08-17T14:00:36.490Z,5.75
2022-08-17T14:03:05.032Z,5.78
2022-08-17T14:05:32.499Z,5.45
2022-08-17T14:08:06.602Z,5.80
2022-08-17T14:10:36.473Z,6.97
2022-08-17T14:13:04.726Z,6.38
2022-08-17T14:15:54.738Z,6.35
2022-08-17T14:18:55.507Z,4.90
2022-08-17T14:21:08.429Z,5.70
2022-08-17T14:23:36.830Z,5.03
2022-08-17T14:26:03.975Z,5.10
2022-08-17T14:28:30.929Z,5.90
2022-08-17T14:31:00.411Z,5.40
2022-08-17T14:33:29.026Z,6.40
2022-08-17T14:35:57.606Z,6.00
2022-08-17T14:38:24.838Z,5.88
2022-08-17T14:40:52.222Z,5.85
2022-08-17T14:43:20.937Z,6.45
2022-08-17T14:45:47.803Z,5.35
2022-08-17T14:48:14.692Z,5.63
2022-08-17T14:50:43.103Z,4.95
2022-08-17T14:53:12.381Z,4.60
2022-08-17T14:55:42.216Z,4.43
2022-08-17T14:58:09.427Z,4.35
2022-08-17T15:00:37.323Z,5.10
2022-08-17T15:03:05.359Z,4.70
2022-08-17T15:05:35.429Z,4.47
2022-08-17T15:08:03.545Z,4.32
2022-08-17T15:10:31.271Z,4.20
2022-08-17T15:12:58.782Z,5.03
2022-08-17T15:15:26.257Z,5.43
2022-08-17T15:17:53.476Z,4.78
2022-08-17T15:20:24.791Z,4.32
2022-08-17T15:22:56.065Z,4.15
2022-08-17T15:25:28.793Z,3.95
2022-08-17T15:27:56.239Z,4.53
2022-08-17T15:30:24.138Z,4.70
2022-08-17T15:32:54.922Z,5.40
2022-08-17T15:35:26.960Z,5.03
2022-08-17T15:38:06.282Z,4.22
2022-08-17T15:40:39.247Z,4.45
2022-08-17T15:43:17.445Z,4.68
2022-08-17T15:45:52.940Z,4.43
2022-08-17T15:48:41.895Z,4.00
2022-08-17T15:51:16.478Z,3.58
2022-08-17T15:53:49.357Z,4.00
2022-08-17T15:56:17.274Z,3.88
2022-08-17T15:58:46.770Z,4.45
2022-08-17T16:01:36.649Z,5.10
2022-08-17T16:04:06.957Z,4.38
2022-08-17T16:06:50.703Z,3.90
2022-08-17T16:09:18.314Z,4.00
2022-08-17T16:11:46.110Z,4.80
2022-08-17T16:14:20.624Z,4.20
2022-08-17T16:16:47.761Z,4.03
2022-08-17T16:19:14.871Z,3.58
2022-08-17T16:21:42.958Z,4.07
2022-08-17T16:24:12.721Z,3.50
2022-08-17T16:26:40.377Z,4.00
2022-08-17T16:29:08.030Z,3.88
2022-08-17T16:31:36.141Z,3.88
2022-08-17T16:34:18.072Z,4.07
2022-08-17T16:36:55.243Z,4.13
2022-08-17T16:39:28.154Z,3.83
2022-08-17T16:41:56.461Z,4.45
2022-08-17T16:44:24.258Z,4.85
2022-08-17T16:46:51.117Z,4.10
2022-08-17T16:49:25.722Z,4.30
2022-08-17T16:52:07.243Z,4.15
2022-08-17T16:54:35.635Z,4.65
2022-08-17T16:57:05.168Z,4.57
2022-08-17T16:59:39.603Z,4.47
2022-08-17T17:02:14.026Z,4.15
2022-08-17T17:05:13.630Z,4.20
2022-08-17T17:07:51.064Z,4.70
2022-08-17T17:10:22.357Z,5.03
2022-08-17T17:13:03.931Z,4.85
2022-08-17T17:16:00.200Z,4.75
2022-08-17T17:18:39.174Z,4.78
2022-08-17T17:21:13.953Z,4.20
2022-08-17T17:23:57.499Z,4.35
2022-08-17T17:26:34.300Z,4.57
2022-08-17T17:29:23.071Z,4.10
2022-08-17T17:32:20.793Z,4.30
2022-08-17T17:34:56.696Z,4.13
2022-08-17T17:37:32.401Z,4.53
2022-08-17T17:40:05.872Z,5.03
2022-08-17T17:42:33.816Z,4.38
2022-08-17T17:45:07.073Z,4.75
2022-08-17T17:47:34.464Z,5.50
2022-08-17T17:50:02.950Z,5.30
2022-08-17T17:52:29.811Z,4.68
2022-08-17T17:55:05.958Z,4.65
2022-08-17T17:57:41.944Z,4.78
2022-08-17T18:00:23.454Z,4.47
2022-08-17T18:03:13.271Z,4.93
2022-08-17T18:06:03.189Z,4.50
2022-08-17T18:08:47.254Z,5.20
2022-08-17T18:11:25.055Z,4.68
2022-08-17T18:14:22.692Z,4.63
2022-08-17T18:16:56.724Z,4.57
2022-08-17T18:19:25.677Z,5.20
2022-08-17T18:22:15.223Z,4.60
2022-08-17T18:24:48.253Z,5.75
2022-08-17T18:27:23.675Z,5.93
2022-08-17T18:29:53.548Z,5.63
2022-08-17T18:32:35.892Z,5.55
2022-08-17T18:35:11.667Z,5.60
2022-08-17T18:37:54.087Z,5.40
2022-08-17T18:40:21.111Z,5.25
2022-08-17T18:43:05.777Z,4.68
2022-08-17T18:45:44.376Z,6.72
2022-08-17T18:48:50.067Z,6.38
2022-08-17T18:51:40.953Z,6.50
2022-08-17T18:54:22.146Z,6.43
2022-08-17T18:56:55.741Z,7.07
2022-08-17T18:59:34.505Z,6.78
2022-08-17T19:02:10.346Z,6.90
2022-08-17T19:04:43.549Z,5.95
2022-08-17T19:07:30.370Z,5.57
2022-08-17T19:10:03.391Z,6.47
2022-08-17T19:12:46.008Z,8.35
2022-08-17T19:15:16.285Z,6.57
2022-08-17T19:18:00.760Z,7.03
2022-08-17T19:20:43.385Z,6.10
2022-08-17T19:23:39.903Z,6.40
2022-08-17T19:26:51.191Z,6.22
2022-08-17T19:29:38.614Z,5.57
2022-08-17T19:32:08.901Z,6.18
2022-08-17T19:34:38.342Z,6.03
2022-08-17T19:37:26.359Z,7.07
2022-08-17T19:40:06.364Z,6.15
2022-08-17T19:42:47.539Z,6.45
2022-08-17T19:45:27.376Z,6.05
2022-08-17T19:48:04.032Z,6.28
2022-08-17T19:50:48.350Z,5.72
2022-08-17T19:53:18.572Z,5.78
2022-08-17T19:55:54.174Z,6.97
2022-08-17T19:58:29.791Z,6.30
2022-08-17T20:00:56.902Z,6.57
2022-08-17T20:03:50.164Z,6.18
2022-08-17T20:06:18.844Z,6.25
2022-08-17T20:08:59.383Z,7.30
2022-08-17T20:11:54.670Z,7.00
2022-08-17T20:14:27.963Z,6.47
2022-08-17T20:16:59.307Z,6.57
2022-08-17T20:19:37.656Z,6.13
2022-08-17T20:22:11.911Z,6.45
2022-08-17T20:24:53.041Z,6.90
2022-08-17T20:27:31.394Z,7.78
2022-08-17T20:30:11.434Z,7.30
2022-08-17T20:32:55.450Z,7.65
2022-08-17T20:35:25.858Z,6.80
2022-08-17T20:38:05.042Z,6.60
2022-08-17T20:41:00.677Z,6.72
2022-08-17T20:43:33.116Z,6.40
2022-08-17T20:46:26.869Z,6.55
2022-08-17T20:49:16.546Z,21.73
2022-08-17T20:52:07.719Z,9.00
2022-08-17T20:54:54.605Z,9.52
2022-08-17T20:57:36.472Z,8.68
2022-08-17T21:00:17.129Z,7.60
2022-08-17T21:02:50.523Z,6.57
2022-08-17T21:05:35.558Z,7.10
2022-08-17T21:08:17.371Z,7.25
2022-08-17T21:10:47.025Z,6.70
2022-08-17T21:13:15.575Z,6.95
2022-08-17T21:15:47.631Z,6.85
2022-08-17T21:18:18.422Z,6.50
2022-08-17T21:21:22.544Z,6.82
2022-08-17T21:23:55.354Z,7.07
2022-08-17T21:26:50.814Z,7.78
2022-08-17T21:29:31.286Z,7.05
2022-08-17T21:31:59.570Z,6.80
2022-08-17T21:34:37.106Z,6.60
2022-08-17T21:37:22.352Z,6.82
2022-08-17T21:40:00.402Z,6.68
2022-08-17T21:42:35.663Z,7.32
2022-08-17T21:45:12.564Z,6.78
2022-08-17T21:47:45.289Z,6.97
2022-08-17T21:50:23.685Z,7.30
2022-08-17T21:52:55.917Z,6.97
2022-08-17T21:55:28.468Z,7.05
2022-08-17T21:58:13.994Z,6.70
2022-08-17T22:00:41.544Z,6.88
2022-08-17T22:03:26.140Z,9.75
2022-08-17T22:05:53.030Z,7.70
2022-08-17T22:08:24.694Z,7.40
2022-08-17T22:11:00.983Z,8.27
2022-08-17T22:13:29.829Z,7.35
2022-08-17T22:16:28.954Z,7.07
2022-08-17T22:18:58.350Z,6.85
2022-08-17T22:21:26.418Z,8.00
2022-08-17T22:24:06.190Z,7.13
2022-08-17T22:27:00.263Z,7.00
2022-08-17T22:29:45.888Z,7.57
2022-08-17T22:32:31.443Z,7.35
2022-08-17T22:35:29.256Z,7.30
2022-08-17T22:37:57.260Z,7.50
2022-08-17T22:40:33.330Z,7.65
2022-08-17T22:43:03.441Z,7.63
2022-08-17T22:45:31.237Z,7.35
2022-08-17T22:48:00.622Z,7.72
2022-08-17T22:50:30.612Z,8.45
2022-08-17T22:53:17.549Z,7.38
2022-08-17T22:56:15.095Z,7.50
2022-08-17T22:59:17.203Z,6.90
2022-08-17T23:02:05.118Z,7.40
2022-08-17T23:04:36.163Z,7.07
2022-08-17T23:07:03.175Z,7.70
2022-08-17T23:09:30.044Z,7.60
2022-08-17T23:11:58.660Z,7.47
2022-08-17T23:14:32.108Z,7.57
2022-08-17T23:17:00.593Z,7.28
2022-08-17T23:19:31.416Z,7.10
2022-08-17T23:21:59.676Z,6.88
2022-08-17T23:24:29.908Z,7.13
2022-08-17T23:26:57.533Z,6.85
2022-08-17T23:29:25.534Z,6.72
2022-08-17T23:31:53.064Z,6.78
2022-08-17T23:34:20.063Z,7.10
2022-08-17T23:36:52.427Z,8.52
2022-08-17T23:39:27.455Z,13.77
2022-08-17T23:42:00.373Z,7.55
2022-08-17T23:44:28.945Z,7.03
2022-08-17T23:46:56.449Z,7.63
2022-08-17T23:49:25.142Z,7.53
2022-08-17T23:51:55.561Z,7.38
2022-08-17T23:54:35.599Z,7.47
2022-08-17T23:57:04.818Z,7.20
2022-08-17T23:59:33.894Z,6.80
